sensor_id;sensor_type;location;lat;lon;timestamp;P1;durP1;ratioP1;P2;durP2;ratioP2
9124;SDS011;4597;48.730;9.114;2023-04-06T00:01:12;8.57;;;6.57;;
9124;SDS011;4597;48.730;9.114;2023-04-06T00:03:37;8.13;;;6.90;;
9124;SDS011;4597;48.730;9.114;2023-04-06T00:06:03;7.37;;;6.67;;
9124;SDS011;4597;48.730;9.114;2023-04-06T00:08:29;7.47;;;6.67;;
9124;SDS011;4597;48.730;9.114;2023-04-06T00:10:55;6.63;;;6.03;;
9124;SDS011;4597;48.730;9.114;2023-04-06T00:13:20;7.17;;;6.53;;
9124;SDS011;4597;48.730;9.114;2023-04-06T00:15:46;10.63;;;7.17;;
9124;SDS011;4597;48.730;9.114;2023-04-06T00:18:11;8.40;;;6.90;;
9124;SDS011;4597;48.730;9.114;2023-04-06T00:20:37;8.90;;;7.17;;
9124;SDS011;4597;48.730;9.114;2023-04-06T00:23:03;8.60;;;7.80;;
9124;SDS011;4597;48.730;9.114;2023-04-06T00:25:28;9.17;;;7.43;;
9124;SDS011;4597;48.730;9.114;2023-04-06T00:27:54;8.30;;;7.30;;
9124;SDS011;4597;48.730;9.114;2023-04-06T00:30:20;8.23;;;6.90;;
9124;SDS011;4597;48.730;9.114;2023-04-06T00:32:45;9.73;;;7.77;;
9124;SDS011;4597;48.730;9.114;2023-04-06T00:35:11;7.77;;;6.90;;
9124;SDS011;4597;48.730;9.114;2023-04-06T00:37:36;7.40;;;6.70;;
9124;SDS011;4597;48.730;9.114;2023-04-06T00:40:02;11.00;;;7.40;;
9124;SDS011;4597;48.730;9.114;2023-04-06T00:42:28;9.97;;;7.87;;
9124;SDS011;4597;48.730;9.114;2023-04-06T00:44:54;10.23;;;8.13;;
9124;SDS011;4597;48.730;9.114;2023-04-06T00:47:21;10.30;;;7.67;;
9124;SDS011;4597;48.730;9.114;2023-04-06T00:49:48;8.57;;;7.47;;
9124;SDS011;4597;48.730;9.114;2023-04-06T00:52:13;11.80;;;7.60;;
9124;SDS011;4597;48.730;9.114;2023-04-06T00:54:40;8.17;;;7.37;;
9124;SDS011;4597;48.730;9.114;2023-04-06T00:57:06;9.83;;;7.77;;
9124;SDS011;4597;48.730;9.114;2023-04-06T00:59:31;8.07;;;7.30;;
9124;SDS011;4597;48.730;9.114;2023-04-06T01:01:57;7.73;;;6.93;;
9124;SDS011;4597;48.730;9.114;2023-04-06T01:04:23;7.73;;;6.97;;
9124;SDS011;4597;48.730;9.114;2023-04-06T01:06:49;7.83;;;7.07;;
9124;SDS011;4597;48.730;9.114;2023-04-06T01:09:16;8.97;;;7.47;;
9124;SDS011;4597;48.730;9.114;2023-04-06T01:11:42;8.37;;;7.27;;
9124;SDS011;4597;48.730;9.114;2023-04-06T01:14:07;8.23;;;7.27;;
9124;SDS011;4597;48.730;9.114;2023-04-06T01:16:33;8.87;;;7.80;;
9124;SDS011;4597;48.730;9.114;2023-04-06T01:18:59;8.47;;;7.43;;
9124;SDS011;4597;48.730;9.114;2023-04-06T01:21:25;9.57;;;7.20;;
9124;SDS011;4597;48.730;9.114;2023-04-06T01:23:51;11.77;;;7.43;;
9124;SDS011;4597;48.730;9.114;2023-04-06T01:26:16;7.83;;;7.10;;
9124;SDS011;4597;48.730;9.114;2023-04-06T01:28:42;7.77;;;7.03;;
9124;SDS011;4597;48.730;9.114;2023-04-06T01:31:09;8.57;;;7.33;;
9124;SDS011;4597;48.730;9.114;2023-04-06T01:33:35;8.43;;;7.53;;
9124;SDS011;4597;48.730;9.114;2023-04-06T01:36:01;7.77;;;6.93;;
9124;SDS011;4597;48.730;9.114;2023-04-06T01:38:27;7.90;;;7.07;;
9124;SDS011;4597;48.730;9.114;2023-04-06T01:40:53;7.73;;;6.93;;
9124;SDS011;4597;48.730;9.114;2023-04-06T01:43:19;8.23;;;6.97;;
9124;SDS011;4597;48.730;9.114;2023-04-06T01:45:45;7.30;;;6.57;;
9124;SDS011;4597;48.730;9.114;2023-04-06T01:48:10;7.67;;;6.87;;
9124;SDS011;4597;48.730;9.114;2023-04-06T01:50:36;9.80;;;7.17;;
9124;SDS011;4597;48.730;9.114;2023-04-06T01:53:01;8.07;;;7.03;;
9124;SDS011;4597;48.730;9.114;2023-04-06T01:55:27;10.03;;;7.03;;
9124;SDS011;4597;48.730;9.114;2023-04-06T01:57:52;8.63;;;7.60;;
9124;SDS011;4597;48.730;9.114;2023-04-06T02:00:18;9.07;;;7.63;;
9124;SDS011;4597;48.730;9.114;2023-04-06T02:02:44;8.47;;;7.67;;
9124;SDS011;4597;48.730;9.114;2023-04-06T02:05:10;9.77;;;7.73;;
9124;SDS011;4597;48.730;9.114;2023-04-06T02:07:35;9.90;;;8.13;;
9124;SDS011;4597;48.730;9.114;2023-04-06T02:10:01;8.90;;;7.97;;
9124;SDS011;4597;48.730;9.114;2023-04-06T02:12:27;8.83;;;7.93;;
9124;SDS011;4597;48.730;9.114;2023-04-06T02:14:53;9.00;;;8.10;;
9124;SDS011;4597;48.730;9.114;2023-04-06T02:17:18;9.83;;;7.97;;
9124;SDS011;4597;48.730;9.114;2023-04-06T02:19:44;9.43;;;8.07;;
9124;SDS011;4597;48.730;9.114;2023-04-06T02:22:10;10.00;;;8.23;;
9124;SDS011;4597;48.730;9.114;2023-04-06T02:24:35;10.20;;;8.50;;
9124;SDS011;4597;48.730;9.114;2023-04-06T02:27:01;8.97;;;8.07;;
9124;SDS011;4597;48.730;9.114;2023-04-06T02:29:26;9.43;;;8.20;;
9124;SDS011;4597;48.730;9.114;2023-04-06T02:31:52;9.67;;;8.17;;
9124;SDS011;4597;48.730;9.114;2023-04-06T02:34:17;10.97;;;8.33;;
9124;SDS011;4597;48.730;9.114;2023-04-06T02:36:44;10.13;;;7.70;;
9124;SDS011;4597;48.730;9.114;2023-04-06T02:39:10;10.23;;;8.27;;
9124;SDS011;4597;48.730;9.114;2023-04-06T02:41:36;8.80;;;7.80;;
9124;SDS011;4597;48.730;9.114;2023-04-06T02:44:02;8.67;;;7.73;;
9124;SDS011;4597;48.730;9.114;2023-04-06T02:46:28;9.87;;;8.13;;
9124;SDS011;4597;48.730;9.114;2023-04-06T02:48:53;9.93;;;8.37;;
9124;SDS011;4597;48.730;9.114;2023-04-06T02:51:19;8.97;;;7.80;;
9124;SDS011;4597;48.730;9.114;2023-04-06T02:53:45;9.83;;;8.83;;
9124;SDS011;4597;48.730;9.114;2023-04-06T02:56:11;10.57;;;8.07;;
9124;SDS011;4597;48.730;9.114;2023-04-06T02:58:36;9.67;;;8.03;;
9124;SDS011;4597;48.730;9.114;2023-04-06T03:01:02;8.87;;;7.93;;
9124;SDS011;4597;48.730;9.114;2023-04-06T03:03:28;10.30;;;8.40;;
9124;SDS011;4597;48.730;9.114;2023-04-06T03:05:54;8.90;;;8.00;;
9124;SDS011;4597;48.730;9.114;2023-04-06T03:08:21;9.17;;;8.27;;
9124;SDS011;4597;48.730;9.114;2023-04-06T03:10:46;9.70;;;7.70;;
9124;SDS011;4597;48.730;9.114;2023-04-06T03:13:12;8.57;;;7.63;;
9124;SDS011;4597;48.730;9.114;2023-04-06T03:15:37;9.90;;;8.10;;
9124;SDS011;4597;48.730;9.114;2023-04-06T03:18:03;8.50;;;7.73;;
9124;SDS011;4597;48.730;9.114;2023-04-06T03:20:28;8.87;;;7.60;;
9124;SDS011;4597;48.730;9.114;2023-04-06T03:22:54;8.77;;;7.60;;
9124;SDS011;4597;48.730;9.114;2023-04-06T03:25:20;11.30;;;8.17;;
9124;SDS011;4597;48.730;9.114;2023-04-06T03:27:45;10.27;;;8.17;;
9124;SDS011;4597;48.730;9.114;2023-04-06T03:30:11;10.97;;;7.50;;
9124;SDS011;4597;48.730;9.114;2023-04-06T03:32:37;8.87;;;7.97;;
9124;SDS011;4597;48.730;9.114;2023-04-06T03:35:02;9.37;;;7.53;;
9124;SDS011;4597;48.730;9.114;2023-04-06T03:37:28;8.67;;;7.77;;
9124;SDS011;4597;48.730;9.114;2023-04-06T03:39:53;8.63;;;7.50;;
9124;SDS011;4597;48.730;9.114;2023-04-06T03:42:19;8.03;;;7.23;;
9124;SDS011;4597;48.730;9.114;2023-04-06T03:44:45;8.53;;;7.47;;
9124;SDS011;4597;48.730;9.114;2023-04-06T03:47:10;8.73;;;7.33;;
9124;SDS011;4597;48.730;9.114;2023-04-06T03:49:36;9.10;;;7.47;;
9124;SDS011;4597;48.730;9.114;2023-04-06T03:52:01;8.80;;;7.40;;
9124;SDS011;4597;48.730;9.114;2023-04-06T03:54:27;8.73;;;7.37;;
9124;SDS011;4597;48.730;9.114;2023-04-06T03:56:52;9.77;;;8.23;;
9124;SDS011;4597;48.730;9.114;2023-04-06T03:59:18;11.63;;;8.33;;
9124;SDS011;4597;48.730;9.114;2023-04-06T04:01:44;9.87;;;8.07;;
9124;SDS011;4597;48.730;9.114;2023-04-06T04:04:09;10.77;;;8.13;;
9124;SDS011;4597;48.730;9.114;2023-04-06T04:06:35;8.70;;;7.77;;
9124;SDS011;4597;48.730;9.114;2023-04-06T04:09:01;10.30;;;8.07;;
9124;SDS011;4597;48.730;9.114;2023-04-06T04:11:27;8.90;;;7.53;;
9124;SDS011;4597;48.730;9.114;2023-04-06T04:13:52;9.17;;;8.03;;
9124;SDS011;4597;48.730;9.114;2023-04-06T04:16:18;10.60;;;7.93;;
9124;SDS011;4597;48.730;9.114;2023-04-06T04:18:44;10.33;;;7.80;;
9124;SDS011;4597;48.730;9.114;2023-04-06T04:21:10;10.83;;;8.33;;
9124;SDS011;4597;48.730;9.114;2023-04-06T04:23:35;10.57;;;8.33;;
9124;SDS011;4597;48.730;9.114;2023-04-06T04:26:01;9.57;;;8.47;;
9124;SDS011;4597;48.730;9.114;2023-04-06T04:28:27;11.87;;;8.87;;
9124;SDS011;4597;48.730;9.114;2023-04-06T04:30:52;12.10;;;8.83;;
9124;SDS011;4597;48.730;9.114;2023-04-06T04:33:18;9.70;;;8.70;;
9124;SDS011;4597;48.730;9.114;2023-04-06T04:35:43;13.67;;;8.70;;
9124;SDS011;4597;48.730;9.114;2023-04-06T04:38:09;12.50;;;9.33;;
9124;SDS011;4597;48.730;9.114;2023-04-06T04:40:34;12.17;;;9.93;;
9124;SDS011;4597;48.730;9.114;2023-04-06T04:43:00;11.00;;;9.13;;
9124;SDS011;4597;48.730;9.114;2023-04-06T04:45:25;12.07;;;8.73;;
9124;SDS011;4597;48.730;9.114;2023-04-06T04:47:51;11.00;;;8.93;;
9124;SDS011;4597;48.730;9.114;2023-04-06T04:50:16;11.33;;;8.77;;
9124;SDS011;4597;48.730;9.114;2023-04-06T04:52:42;10.63;;;8.63;;
9124;SDS011;4597;48.730;9.114;2023-04-06T04:55:07;9.93;;;8.93;;
9124;SDS011;4597;48.730;9.114;2023-04-06T04:57:33;9.60;;;8.27;;
9124;SDS011;4597;48.730;9.114;2023-04-06T04:59:58;9.87;;;8.40;;
9124;SDS011;4597;48.730;9.114;2023-04-06T05:02:24;12.73;;;8.23;;
9124;SDS011;4597;48.730;9.114;2023-04-06T05:04:50;10.93;;;8.63;;
9124;SDS011;4597;48.730;9.114;2023-04-06T05:07:15;10.87;;;8.33;;
9124;SDS011;4597;48.730;9.114;2023-04-06T05:09:43;11.43;;;9.03;;
9124;SDS011;4597;48.730;9.114;2023-04-06T05:12:09;11.40;;;8.80;;
9124;SDS011;4597;48.730;9.114;2023-04-06T05:14:35;9.70;;;8.40;;
9124;SDS011;4597;48.730;9.114;2023-04-06T05:17:01;10.03;;;9.00;;
9124;SDS011;4597;48.730;9.114;2023-04-06T05:19:26;11.73;;;8.73;;
9124;SDS011;4597;48.730;9.114;2023-04-06T05:21:52;9.93;;;8.83;;
9124;SDS011;4597;48.730;9.114;2023-04-06T05:24:18;10.70;;;8.60;;
9124;SDS011;4597;48.730;9.114;2023-04-06T05:26:43;10.03;;;8.13;;
9124;SDS011;4597;48.730;9.114;2023-04-06T05:29:09;11.00;;;9.10;;
9124;SDS011;4597;48.730;9.114;2023-04-06T05:31:35;12.27;;;8.90;;
9124;SDS011;4597;48.730;9.114;2023-04-06T05:34:01;13.10;;;9.07;;
9124;SDS011;4597;48.730;9.114;2023-04-06T05:36:27;10.03;;;8.50;;
9124;SDS011;4597;48.730;9.114;2023-04-06T05:38:52;10.77;;;8.63;;
9124;SDS011;4597;48.730;9.114;2023-04-06T05:41:18;11.63;;;9.90;;
9124;SDS011;4597;48.730;9.114;2023-04-06T05:43:43;10.17;;;9.07;;
9124;SDS011;4597;48.730;9.114;2023-04-06T05:46:09;11.23;;;9.60;;
9124;SDS011;4597;48.730;9.114;2023-04-06T05:48:35;11.37;;;9.67;;
9124;SDS011;4597;48.730;9.114;2023-04-06T05:51:01;11.43;;;10.23;;
9124;SDS011;4597;48.730;9.114;2023-04-06T05:53:30;11.67;;;9.87;;
9124;SDS011;4597;48.730;9.114;2023-04-06T05:55:56;14.30;;;10.20;;
9124;SDS011;4597;48.730;9.114;2023-04-06T05:58:25;12.57;;;9.13;;
9124;SDS011;4597;48.730;9.114;2023-04-06T06:00:51;10.80;;;9.47;;
9124;SDS011;4597;48.730;9.114;2023-04-06T06:03:22;13.97;;;9.90;;
9124;SDS011;4597;48.730;9.114;2023-04-06T06:05:47;11.57;;;9.17;;
9124;SDS011;4597;48.730;9.114;2023-04-06T06:08:13;12.10;;;9.60;;
9124;SDS011;4597;48.730;9.114;2023-04-06T06:10:38;11.37;;;9.20;;
9124;SDS011;4597;48.730;9.114;2023-04-06T06:13:05;12.40;;;9.77;;
9124;SDS011;4597;48.730;9.114;2023-04-06T06:15:30;12.30;;;9.23;;
9124;SDS011;4597;48.730;9.114;2023-04-06T06:17:56;11.90;;;9.53;;
9124;SDS011;4597;48.730;9.114;2023-04-06T06:20:21;10.47;;;8.87;;
9124;SDS011;4597;48.730;9.114;2023-04-06T06:22:47;9.87;;;8.77;;
9124;SDS011;4597;48.730;9.114;2023-04-06T06:25:12;12.40;;;9.57;;
9124;SDS011;4597;48.730;9.114;2023-04-06T06:27:38;14.50;;;10.87;;
9124;SDS011;4597;48.730;9.114;2023-04-06T06:30:04;13.37;;;10.30;;
9124;SDS011;4597;48.730;9.114;2023-04-06T06:32:30;12.10;;;10.60;;
9124;SDS011;4597;48.730;9.114;2023-04-06T06:34:55;11.83;;;9.20;;
9124;SDS011;4597;48.730;9.114;2023-04-06T06:37:21;10.70;;;8.77;;
9124;SDS011;4597;48.730;9.114;2023-04-06T06:39:46;11.07;;;8.73;;
9124;SDS011;4597;48.730;9.114;2023-04-06T06:42:12;10.83;;;9.53;;
9124;SDS011;4597;48.730;9.114;2023-04-06T06:44:37;12.33;;;9.20;;
9124;SDS011;4597;48.730;9.114;2023-04-06T06:47:03;11.03;;;9.80;;
9124;SDS011;4597;48.730;9.114;2023-04-06T06:49:28;13.77;;;10.00;;
9124;SDS011;4597;48.730;9.114;2023-04-06T06:51:54;12.90;;;9.40;;
9124;SDS011;4597;48.730;9.114;2023-04-06T06:54:19;13.57;;;9.87;;
9124;SDS011;4597;48.730;9.114;2023-04-06T06:56:45;12.40;;;10.07;;
9124;SDS011;4597;48.730;9.114;2023-04-06T06:59:10;12.10;;;10.53;;
9124;SDS011;4597;48.730;9.114;2023-04-06T07:01:36;11.80;;;9.60;;
9124;SDS011;4597;48.730;9.114;2023-04-06T07:04:01;13.03;;;10.30;;
9124;SDS011;4597;48.730;9.114;2023-04-06T07:06:27;12.43;;;9.27;;
9124;SDS011;4597;48.730;9.114;2023-04-06T07:08:52;10.87;;;9.60;;
9124;SDS011;4597;48.730;9.114;2023-04-06T07:11:18;11.73;;;10.03;;
9124;SDS011;4597;48.730;9.114;2023-04-06T07:13:43;11.53;;;10.30;;
9124;SDS011;4597;48.730;9.114;2023-04-06T07:16:09;12.33;;;10.33;;
9124;SDS011;4597;48.730;9.114;2023-04-06T07:18:34;10.67;;;9.57;;
9124;SDS011;4597;48.730;9.114;2023-04-06T07:21:00;11.47;;;10.03;;
9124;SDS011;4597;48.730;9.114;2023-04-06T07:23:25;13.27;;;10.00;;
9124;SDS011;4597;48.730;9.114;2023-04-06T07:25:51;11.13;;;10.00;;
9124;SDS011;4597;48.730;9.114;2023-04-06T07:28:18;12.83;;;11.00;;
9124;SDS011;4597;48.730;9.114;2023-04-06T07:30:44;11.83;;;9.63;;
9124;SDS011;4597;48.730;9.114;2023-04-06T07:33:09;12.83;;;10.37;;
9124;SDS011;4597;48.730;9.114;2023-04-06T07:35:35;12.27;;;10.53;;
9124;SDS011;4597;48.730;9.114;2023-04-06T07:38:01;12.40;;;10.80;;
9124;SDS011;4597;48.730;9.114;2023-04-06T07:40:27;11.73;;;10.50;;
9124;SDS011;4597;48.730;9.114;2023-04-06T07:42:53;14.43;;;10.83;;
9124;SDS011;4597;48.730;9.114;2023-04-06T07:45:18;15.73;;;9.97;;
9124;SDS011;4597;48.730;9.114;2023-04-06T07:47:44;10.57;;;9.53;;
9124;SDS011;4597;48.730;9.114;2023-04-06T07:50:10;13.30;;;9.83;;
9124;SDS011;4597;48.730;9.114;2023-04-06T07:52:36;14.10;;;10.23;;
9124;SDS011;4597;48.730;9.114;2023-04-06T07:55:03;16.90;;;10.87;;
9124;SDS011;4597;48.730;9.114;2023-04-06T07:57:29;13.57;;;10.47;;
9124;SDS011;4597;48.730;9.114;2023-04-06T07:59:54;16.17;;;10.27;;
9124;SDS011;4597;48.730;9.114;2023-04-06T08:02:19;11.50;;;10.30;;
9124;SDS011;4597;48.730;9.114;2023-04-06T08:04:45;14.47;;;10.30;;
9124;SDS011;4597;48.730;9.114;2023-04-06T08:07:11;12.73;;;9.97;;
9124;SDS011;4597;48.730;9.114;2023-04-06T08:09:37;16.10;;;11.30;;
9124;SDS011;4597;48.730;9.114;2023-04-06T08:12:02;16.67;;;10.70;;
9124;SDS011;4597;48.730;9.114;2023-04-06T08:14:28;15.57;;;10.47;;
9124;SDS011;4597;48.730;9.114;2023-04-06T08:16:53;14.33;;;9.93;;
9124;SDS011;4597;48.730;9.114;2023-04-06T08:19:19;11.70;;;10.43;;
9124;SDS011;4597;48.730;9.114;2023-04-06T08:21:45;11.00;;;9.80;;
9124;SDS011;4597;48.730;9.114;2023-04-06T08:24:12;9.83;;;8.83;;
9124;SDS011;4597;48.730;9.114;2023-04-06T08:26:37;11.77;;;10.40;;
9124;SDS011;4597;48.730;9.114;2023-04-06T08:29:03;10.30;;;9.20;;
9124;SDS011;4597;48.730;9.114;2023-04-06T08:31:29;11.23;;;9.53;;
9124;SDS011;4597;48.730;9.114;2023-04-06T08:33:55;9.37;;;8.47;;
9124;SDS011;4597;48.730;9.114;2023-04-06T08:36:20;12.87;;;9.10;;
9124;SDS011;4597;48.730;9.114;2023-04-06T08:38:48;9.67;;;8.17;;
9124;SDS011;4597;48.730;9.114;2023-04-06T08:41:14;9.70;;;8.70;;
9124;SDS011;4597;48.730;9.114;2023-04-06T08:43:43;9.80;;;8.77;;
9124;SDS011;4597;48.730;9.114;2023-04-06T08:46:11;10.30;;;7.77;;
9124;SDS011;4597;48.730;9.114;2023-04-06T08:48:41;8.93;;;7.77;;
9124;SDS011;4597;48.730;9.114;2023-04-06T08:51:10;10.23;;;8.20;;
9124;SDS011;4597;48.730;9.114;2023-04-06T08:53:36;9.50;;;7.57;;
9124;SDS011;4597;48.730;9.114;2023-04-06T08:56:02;8.73;;;7.83;;
9124;SDS011;4597;48.730;9.114;2023-04-06T08:58:32;9.90;;;8.17;;
9124;SDS011;4597;48.730;9.114;2023-04-06T09:01:00;8.67;;;7.87;;
9124;SDS011;4597;48.730;9.114;2023-04-06T09:03:27;9.50;;;8.50;;
9124;SDS011;4597;48.730;9.114;2023-04-06T09:05:54;9.47;;;7.93;;
9124;SDS011;4597;48.730;9.114;2023-04-06T09:08:20;12.03;;;8.97;;
9124;SDS011;4597;48.730;9.114;2023-04-06T09:10:45;9.57;;;8.57;;
9124;SDS011;4597;48.730;9.114;2023-04-06T09:13:11;9.37;;;8.40;;
9124;SDS011;4597;48.730;9.114;2023-04-06T09:15:36;10.80;;;8.37;;
9124;SDS011;4597;48.730;9.114;2023-04-06T09:18:02;11.57;;;8.37;;
9124;SDS011;4597;48.730;9.114;2023-04-06T09:20:28;10.17;;;9.17;;
9124;SDS011;4597;48.730;9.114;2023-04-06T09:22:54;10.40;;;8.20;;
9124;SDS011;4597;48.730;9.114;2023-04-06T09:25:23;11.37;;;8.23;;
9124;SDS011;4597;48.730;9.114;2023-04-06T09:27:58;8.93;;;8.03;;
9124;SDS011;4597;48.730;9.114;2023-04-06T09:30:25;11.60;;;9.10;;
9124;SDS011;4597;48.730;9.114;2023-04-06T09:32:52;9.20;;;8.30;;
9124;SDS011;4597;48.730;9.114;2023-04-06T09:35:19;10.40;;;8.13;;
9124;SDS011;4597;48.730;9.114;2023-04-06T09:37:49;10.53;;;7.70;;
9124;SDS011;4597;48.730;9.114;2023-04-06T09:40:15;9.33;;;7.60;;
9124;SDS011;4597;48.730;9.114;2023-04-06T09:42:42;9.30;;;8.30;;
9124;SDS011;4597;48.730;9.114;2023-04-06T09:45:11;9.70;;;8.00;;
9124;SDS011;4597;48.730;9.114;2023-04-06T09:47:37;8.17;;;7.37;;
9124;SDS011;4597;48.730;9.114;2023-04-06T09:50:05;10.10;;;7.93;;
9124;SDS011;4597;48.730;9.114;2023-04-06T09:52:32;8.23;;;7.43;;
9124;SDS011;4597;48.730;9.114;2023-04-06T09:55:03;8.10;;;7.40;;
9124;SDS011;4597;48.730;9.114;2023-04-06T09:57:36;9.63;;;7.30;;
9124;SDS011;4597;48.730;9.114;2023-04-06T10:00:26;8.20;;;7.40;;
9124;SDS011;4597;48.730;9.114;2023-04-06T10:05:29;8.10;;;7.33;;
9124;SDS011;4597;48.730;9.114;2023-04-06T10:08:11;9.30;;;7.77;;
9124;SDS011;4597;48.730;9.114;2023-04-06T10:10:38;10.80;;;8.20;;
9124;SDS011;4597;48.730;9.114;2023-04-06T10:13:04;8.73;;;7.93;;
9124;SDS011;4597;48.730;9.114;2023-04-06T10:15:30;9.27;;;8.30;;
9124;SDS011;4597;48.730;9.114;2023-04-06T10:17:57;9.20;;;7.90;;
9124;SDS011;4597;48.730;9.114;2023-04-06T10:20:26;9.60;;;7.63;;
9124;SDS011;4597;48.730;9.114;2023-04-06T10:23:01;9.33;;;8.27;;
9124;SDS011;4597;48.730;9.114;2023-04-06T10:25:54;8.47;;;7.57;;
9124;SDS011;4597;48.730;9.114;2023-04-06T10:28:21;11.40;;;8.80;;
9124;SDS011;4597;48.730;9.114;2023-04-06T10:30:48;10.03;;;8.43;;
9124;SDS011;4597;48.730;9.114;2023-04-06T10:33:14;8.77;;;7.97;;
9124;SDS011;4597;48.730;9.114;2023-04-06T10:35:40;9.37;;;8.40;;
9124;SDS011;4597;48.730;9.114;2023-04-06T10:38:05;10.13;;;8.60;;
9124;SDS011;4597;48.730;9.114;2023-04-06T10:40:31;9.07;;;8.27;;
9124;SDS011;4597;48.730;9.114;2023-04-06T10:43:06;9.53;;;8.40;;
9124;SDS011;4597;48.730;9.114;2023-04-06T10:45:33;10.47;;;9.33;;
9124;SDS011;4597;48.730;9.114;2023-04-06T10:48:00;9.60;;;8.37;;
9124;SDS011;4597;48.730;9.114;2023-04-06T10:50:26;10.03;;;8.83;;
9124;SDS011;4597;48.730;9.114;2023-04-06T10:53:00;9.43;;;8.30;;
9124;SDS011;4597;48.730;9.114;2023-04-06T10:55:27;9.47;;;7.80;;
9124;SDS011;4597;48.730;9.114;2023-04-06T10:57:53;9.57;;;8.57;;
9124;SDS011;4597;48.730;9.114;2023-04-06T11:00:19;12.43;;;9.13;;
9124;SDS011;4597;48.730;9.114;2023-04-06T11:02:45;10.93;;;9.60;;
9124;SDS011;4597;48.730;9.114;2023-04-06T11:05:11;10.30;;;8.70;;
9124;SDS011;4597;48.730;9.114;2023-04-06T11:07:38;9.60;;;8.67;;
9124;SDS011;4597;48.730;9.114;2023-04-06T11:10:05;10.90;;;9.70;;
9124;SDS011;4597;48.730;9.114;2023-04-06T11:12:32;12.00;;;9.73;;
9124;SDS011;4597;48.730;9.114;2023-04-06T11:14:58;11.93;;;9.80;;
9124;SDS011;4597;48.730;9.114;2023-04-06T11:17:32;10.97;;;8.63;;
9124;SDS011;4597;48.730;9.114;2023-04-06T11:19:59;12.40;;;8.87;;
9124;SDS011;4597;48.730;9.114;2023-04-06T11:22:25;10.23;;;9.17;;
9124;SDS011;4597;48.730;9.114;2023-04-06T11:24:51;11.60;;;8.90;;
9124;SDS011;4597;48.730;9.114;2023-04-06T11:27:18;10.17;;;9.17;;
9124;SDS011;4597;48.730;9.114;2023-04-06T11:29:44;10.53;;;8.57;;
9124;SDS011;4597;48.730;9.114;2023-04-06T11:32:19;10.47;;;9.43;;
9124;SDS011;4597;48.730;9.114;2023-04-06T11:34:46;11.13;;;10.03;;
9124;SDS011;4597;48.730;9.114;2023-04-06T11:37:12;11.10;;;10.03;;
9124;SDS011;4597;48.730;9.114;2023-04-06T11:42:25;11.27;;;9.60;;
9124;SDS011;4597;48.730;9.114;2023-04-06T11:44:56;10.17;;;8.73;;
9124;SDS011;4597;48.730;9.114;2023-04-06T11:47:29;10.53;;;9.53;;
9124;SDS011;4597;48.730;9.114;2023-04-06T11:50:05;10.63;;;9.43;;
9124;SDS011;4597;48.730;9.114;2023-04-06T11:52:34;11.60;;;9.90;;
9124;SDS011;4597;48.730;9.114;2023-04-06T11:55:09;11.80;;;9.23;;
9124;SDS011;4597;48.730;9.114;2023-04-06T11:57:36;10.47;;;9.40;;
9124;SDS011;4597;48.730;9.114;2023-04-06T12:00:02;9.93;;;8.93;;
9124;SDS011;4597;48.730;9.114;2023-04-06T12:02:28;10.60;;;8.53;;
9124;SDS011;4597;48.730;9.114;2023-04-06T12:04:53;11.23;;;9.77;;
9124;SDS011;4597;48.730;9.114;2023-04-06T12:07:19;13.20;;;9.37;;
9124;SDS011;4597;48.730;9.114;2023-04-06T12:09:44;9.93;;;8.90;;
9124;SDS011;4597;48.730;9.114;2023-04-06T12:12:10;10.17;;;8.93;;
9124;SDS011;4597;48.730;9.114;2023-04-06T12:14:35;10.57;;;9.03;;
9124;SDS011;4597;48.730;9.114;2023-04-06T12:17:01;10.93;;;9.63;;
9124;SDS011;4597;48.730;9.114;2023-04-06T12:19:26;11.60;;;9.53;;
9124;SDS011;4597;48.730;9.114;2023-04-06T12:21:53;12.63;;;9.80;;
9124;SDS011;4597;48.730;9.114;2023-04-06T12:24:19;11.57;;;10.27;;
9124;SDS011;4597;48.730;9.114;2023-04-06T12:26:45;10.73;;;9.57;;
9124;SDS011;4597;48.730;9.114;2023-04-06T12:29:10;10.37;;;9.37;;
9124;SDS011;4597;48.730;9.114;2023-04-06T12:31:38;9.70;;;8.80;;
9124;SDS011;4597;48.730;9.114;2023-04-06T12:34:05;11.80;;;10.37;;
9124;SDS011;4597;48.730;9.114;2023-04-06T12:36:32;10.40;;;9.30;;
9124;SDS011;4597;48.730;9.114;2023-04-06T12:38:58;11.67;;;9.60;;
9124;SDS011;4597;48.730;9.114;2023-04-06T12:41:23;10.33;;;9.23;;
9124;SDS011;4597;48.730;9.114;2023-04-06T12:43:49;11.60;;;9.93;;
9124;SDS011;4597;48.730;9.114;2023-04-06T12:46:15;11.63;;;9.80;;
9124;SDS011;4597;48.730;9.114;2023-04-06T12:48:41;10.53;;;9.40;;
9124;SDS011;4597;48.730;9.114;2023-04-06T12:51:07;11.63;;;9.37;;
9124;SDS011;4597;48.730;9.114;2023-04-06T12:53:33;10.77;;;8.70;;
9124;SDS011;4597;48.730;9.114;2023-04-06T12:55:59;11.90;;;9.53;;
9124;SDS011;4597;48.730;9.114;2023-04-06T12:58:25;9.00;;;8.10;;
9124;SDS011;4597;48.730;9.114;2023-04-06T13:00:54;9.17;;;8.27;;
9124;SDS011;4597;48.730;9.114;2023-04-06T13:03:22;11.93;;;10.30;;
9124;SDS011;4597;48.730;9.114;2023-04-06T13:05:49;10.77;;;9.67;;
9124;SDS011;4597;48.730;9.114;2023-04-06T13:08:15;10.63;;;9.57;;
9124;SDS011;4597;48.730;9.114;2023-04-06T13:10:44;11.83;;;9.07;;
9124;SDS011;4597;48.730;9.114;2023-04-06T13:13:17;9.67;;;8.60;;
9124;SDS011;4597;48.730;9.114;2023-04-06T13:15:45;9.87;;;8.97;;
9124;SDS011;4597;48.730;9.114;2023-04-06T13:18:11;10.47;;;9.37;;
9124;SDS011;4597;48.730;9.114;2023-04-06T13:20:36;10.10;;;8.70;;
9124;SDS011;4597;48.730;9.114;2023-04-06T13:23:02;9.77;;;8.77;;
9124;SDS011;4597;48.730;9.114;2023-04-06T13:25:28;10.33;;;8.57;;
9124;SDS011;4597;48.730;9.114;2023-04-06T13:27:54;9.40;;;8.47;;
9124;SDS011;4597;48.730;9.114;2023-04-06T13:30:20;11.60;;;8.43;;
9124;SDS011;4597;48.730;9.114;2023-04-06T13:32:46;10.70;;;9.60;;
9124;SDS011;4597;48.730;9.114;2023-04-06T13:35:11;10.97;;;9.20;;
9124;SDS011;4597;48.730;9.114;2023-04-06T13:37:37;10.00;;;9.00;;
9124;SDS011;4597;48.730;9.114;2023-04-06T13:40:03;9.37;;;8.47;;
9124;SDS011;4597;48.730;9.114;2023-04-06T13:42:30;9.47;;;8.47;;
9124;SDS011;4597;48.730;9.114;2023-04-06T13:44:56;9.60;;;8.70;;
9124;SDS011;4597;48.730;9.114;2023-04-06T13:47:21;9.70;;;8.77;;
9124;SDS011;4597;48.730;9.114;2023-04-06T13:49:47;9.30;;;8.40;;
9124;SDS011;4597;48.730;9.114;2023-04-06T13:52:15;10.03;;;8.90;;
9124;SDS011;4597;48.730;9.114;2023-04-06T13:54:41;10.20;;;9.07;;
9124;SDS011;4597;48.730;9.114;2023-04-06T13:57:06;11.40;;;9.10;;
9124;SDS011;4597;48.730;9.114;2023-04-06T13:59:33;10.67;;;9.60;;
9124;SDS011;4597;48.730;9.114;2023-04-06T14:02:02;9.67;;;8.67;;
9124;SDS011;4597;48.730;9.114;2023-04-06T14:04:28;9.13;;;8.23;;
9124;SDS011;4597;48.730;9.114;2023-04-06T14:06:54;9.80;;;8.67;;
9124;SDS011;4597;48.730;9.114;2023-04-06T14:09:20;9.93;;;8.90;;
9124;SDS011;4597;48.730;9.114;2023-04-06T14:11:46;10.93;;;9.43;;
9124;SDS011;4597;48.730;9.114;2023-04-06T14:14:11;10.03;;;9.03;;
9124;SDS011;4597;48.730;9.114;2023-04-06T14:16:37;9.07;;;8.13;;
9124;SDS011;4597;48.730;9.114;2023-04-06T14:19:03;9.90;;;8.90;;
9124;SDS011;4597;48.730;9.114;2023-04-06T14:21:28;10.80;;;9.17;;
9124;SDS011;4597;48.730;9.114;2023-04-06T14:23:54;10.47;;;8.50;;
9124;SDS011;4597;48.730;9.114;2023-04-06T14:26:20;9.03;;;8.13;;
9124;SDS011;4597;48.730;9.114;2023-04-06T14:28:46;10.00;;;8.57;;
9124;SDS011;4597;48.730;9.114;2023-04-06T14:31:12;8.87;;;7.97;;
9124;SDS011;4597;48.730;9.114;2023-04-06T14:33:40;10.40;;;8.30;;
9124;SDS011;4597;48.730;9.114;2023-04-06T14:36:06;8.53;;;7.67;;
9124;SDS011;4597;48.730;9.114;2023-04-06T14:38:32;8.47;;;7.70;;
9124;SDS011;4597;48.730;9.114;2023-04-06T14:40:58;8.87;;;7.87;;
9124;SDS011;4597;48.730;9.114;2023-04-06T14:43:23;7.13;;;6.53;;
9124;SDS011;4597;48.730;9.114;2023-04-06T14:45:50;8.30;;;7.57;;
9124;SDS011;4597;48.730;9.114;2023-04-06T14:48:16;8.33;;;7.60;;
9124;SDS011;4597;48.730;9.114;2023-04-06T14:50:51;7.20;;;6.70;;
9124;SDS011;4597;48.730;9.114;2023-04-06T14:53:18;7.00;;;6.40;;
9124;SDS011;4597;48.730;9.114;2023-04-06T14:55:44;7.60;;;6.90;;
9124;SDS011;4597;48.730;9.114;2023-04-06T14:58:09;8.40;;;7.43;;
9124;SDS011;4597;48.730;9.114;2023-04-06T15:00:36;10.00;;;7.27;;
9124;SDS011;4597;48.730;9.114;2023-04-06T15:03:03;8.30;;;7.43;;
9124;SDS011;4597;48.730;9.114;2023-04-06T15:05:28;8.53;;;7.53;;